sensor_id;sensor_type;location;lat;lon;timestamp;P1;durP1;ratioP1;P2;durP2;ratioP2
68192;SDS011;55012;47.562;18.414;2022-09-09T13:15:24;1.90;;;1.20;;
68192;SDS011;55012;47.562;18.414;2022-09-09T13:17:54;1.80;;;1.20;;
68192;SDS011;55012;47.562;18.414;2022-09-09T13:20:22;1.55;;;1.25;;
68192;SDS011;55012;47.562;18.414;2022-09-09T13:22:50;2.10;;;1.20;;
68192;SDS011;55012;47.562;18.414;2022-09-09T13:25:19;2.50;;;1.40;;
68192;SDS011;55012;47.562;18.414;2022-09-09T13:28:01;1.75;;;1.38;;
68192;SDS011;55012;47.562;18.414;2022-09-09T13:30:33;2.00;;;1.30;;
68192;SDS011;55012;47.562;18.414;2022-09-09T13:35:34;2.55;;;1.15;;
68192;SDS011;55012;47.562;18.414;2022-09-09T13:38:12;2.28;;;1.00;;
68192;SDS011;55012;47.562;18.414;2022-09-09T13:40:40;1.40;;;1.20;;
68192;SDS011;55012;47.562;18.414;2022-09-09T13:43:20;1.30;;;1.20;;
68192;SDS011;55012;47.562;18.414;2022-09-09T13:45:55;2.45;;;1.20;;
68192;SDS011;55012;47.562;18.414;2022-09-09T13:48:23;1.50;;;1.40;;
68192;SDS011;55012;47.562;18.414;2022-09-09T13:50:58;2.38;;;1.30;;
68192;SDS011;55012;47.562;18.414;2022-09-09T13:53:26;1.65;;;1.05;;
68192;SDS011;55012;47.562;18.414;2022-09-09T13:55:52;2.35;;;1.30;;
68192;SDS011;55012;47.562;18.414;2022-09-09T13:58:18;2.75;;;1.20;;
68192;SDS011;55012;47.562;18.414;2022-09-09T14:00:44;2.25;;;1.25;;
68192;SDS011;55012;47.562;18.414;2022-09-09T14:03:11;1.90;;;1.35;;
68192;SDS011;55012;47.562;18.414;2022-09-09T14:05:36;1.48;;;1.05;;
68192;SDS011;55012;47.562;18.414;2022-09-09T14:08:06;2.80;;;1.48;;
68192;SDS011;55012;47.562;18.414;2022-09-09T14:10:32;4.80;;;1.48;;
68192;SDS011;55012;47.562;18.414;2022-09-09T14:13:02;2.58;;;1.33;;
68192;SDS011;55012;47.562;18.414;2022-09-09T14:15:28;1.60;;;1.20;;
68192;SDS011;55012;47.562;18.414;2022-09-09T14:17:54;1.83;;;1.20;;
68192;SDS011;55012;47.562;18.414;2022-09-09T14:20:19;1.70;;;1.40;;
68192;SDS011;55012;47.562;18.414;2022-09-09T14:22:47;2.63;;;1.40;;
68192;SDS011;55012;47.562;18.414;2022-09-09T14:25:12;1.98;;;1.20;;
68192;SDS011;55012;47.562;18.414;2022-09-09T14:27:38;1.52;;;1.20;;
68192;SDS011;55012;47.562;18.414;2022-09-09T14:30:05;2.17;;;1.17;;
68192;SDS011;55012;47.562;18.414;2022-09-09T14:32:31;1.83;;;1.30;;
68192;SDS011;55012;47.562;18.414;2022-09-09T14:34:57;1.90;;;1.20;;
68192;SDS011;55012;47.562;18.414;2022-09-09T14:37:22;1.80;;;1.23;;
68192;SDS011;55012;47.562;18.414;2022-09-09T14:39:49;1.92;;;1.30;;
68192;SDS011;55012;47.562;18.414;2022-09-09T14:42:15;1.20;;;1.02;;
68192;SDS011;55012;47.562;18.414;2022-09-09T14:44:41;1.50;;;1.15;;
68192;SDS011;55012;47.562;18.414;2022-09-09T14:47:07;1.20;;;1.05;;
68192;SDS011;55012;47.562;18.414;2022-09-09T14:49:34;2.83;;;1.10;;
68192;SDS011;55012;47.562;18.414;2022-09-09T14:52:00;2.85;;;1.10;;
68192;SDS011;55012;47.562;18.414;2022-09-09T14:54:26;2.30;;;1.23;;
68192;SDS011;55012;47.562;18.414;2022-09-09T14:56:53;2.33;;;1.15;;
68192;SDS011;55012;47.562;18.414;2022-09-09T14:59:19;1.77;;;1.23;;
68192;SDS011;55012;47.562;18.414;2022-09-09T15:01:45;2.13;;;1.33;;
68192;SDS011;55012;47.562;18.414;2022-09-09T15:04:11;2.95;;;1.30;;
68192;SDS011;55012;47.562;18.414;2022-09-09T15:06:39;2.22;;;1.20;;
68192;SDS011;55012;47.562;18.414;2022-09-09T15:09:07;3.65;;;1.00;;
68192;SDS011;55012;47.562;18.414;2022-09-09T15:11:34;1.17;;;1.08;;
68192;SDS011;55012;47.562;18.414;2022-09-09T15:14:02;3.38;;;1.20;;
68192;SDS011;55012;47.562;18.414;2022-09-09T15:16:32;2.05;;;1.20;;
68192;SDS011;55012;47.562;18.414;2022-09-09T15:18:59;2.50;;;1.40;;
68192;SDS011;55012;47.562;18.414;2022-09-09T15:21:26;2.33;;;1.15;;
68192;SDS011;55012;47.562;18.414;2022-09-09T15:23:54;3.38;;;1.25;;
68192;SDS011;55012;47.562;18.414;2022-09-09T15:26:20;2.13;;;1.20;;
68192;SDS011;55012;47.562;18.414;2022-09-09T15:28:46;1.55;;;1.10;;
68192;SDS011;55012;47.562;18.414;2022-09-09T15:31:13;2.28;;;1.13;;
68192;SDS011;55012;47.562;18.414;2022-09-09T15:33:46;2.00;;;1.27;;
68192;SDS011;55012;47.562;18.414;2022-09-09T15:36:22;3.45;;;1.30;;
68192;SDS011;55012;47.562;18.414;2022-09-09T15:38:50;1.58;;;1.27;;
68192;SDS011;55012;47.562;18.414;2022-09-09T15:41:17;1.58;;;1.13;;
68192;SDS011;55012;47.562;18.414;2022-09-09T15:43:44;1.88;;;1.33;;
68192;SDS011;55012;47.562;18.414;2022-09-09T15:48:42;3.33;;;1.27;;
68192;SDS011;55012;47.562;18.414;2022-09-09T15:51:09;5.25;;;1.30;;
68192;SDS011;55012;47.562;18.414;2022-09-09T15:53:36;3.25;;;1.40;;
68192;SDS011;55012;47.562;18.414;2022-09-09T15:56:07;3.55;;;1.23;;
68192;SDS011;55012;47.562;18.414;2022-09-09T15:58:33;3.00;;;1.50;;
68192;SDS011;55012;47.562;18.414;2022-09-09T16:01:07;4.85;;;1.70;;
68192;SDS011;55012;47.562;18.414;2022-09-09T16:03:34;3.22;;;1.80;;
68192;SDS011;55012;47.562;18.414;2022-09-09T16:06:04;2.00;;;1.42;;
68192;SDS011;55012;47.562;18.414;2022-09-09T16:08:31;4.18;;;1.48;;
68192;SDS011;55012;47.562;18.414;2022-09-09T16:11:03;2.60;;;1.50;;
68192;SDS011;55012;47.562;18.414;2022-09-09T16:13:34;4.50;;;1.38;;
68192;SDS011;55012;47.562;18.414;2022-09-09T16:16:04;2.17;;;1.30;;
68192;SDS011;55012;47.562;18.414;2022-09-09T16:18:37;2.40;;;1.48;;
68192;SDS011;55012;47.562;18.414;2022-09-09T16:21:05;2.15;;;1.30;;
68192;SDS011;55012;47.562;18.414;2022-09-09T16:23:33;6.43;;;1.50;;
68192;SDS011;55012;47.562;18.414;2022-09-09T16:26:00;2.03;;;1.60;;
68192;SDS011;55012;47.562;18.414;2022-09-09T16:28:26;2.22;;;1.65;;
68192;SDS011;55012;47.562;18.414;2022-09-09T16:30:52;3.10;;;1.55;;
68192;SDS011;55012;47.562;18.414;2022-09-09T16:33:18;6.47;;;4.88;;
68192;SDS011;55012;47.562;18.414;2022-09-09T16:35:43;4.57;;;2.20;;
68192;SDS011;55012;47.562;18.414;2022-09-09T16:38:09;8.40;;;2.83;;
68192;SDS011;55012;47.562;18.414;2022-09-09T16:40:35;2.83;;;1.67;;
68192;SDS011;55012;47.562;18.414;2022-09-09T16:43:04;4.80;;;1.90;;
68192;SDS011;55012;47.562;18.414;2022-09-09T16:45:30;4.57;;;2.13;;
68192;SDS011;55012;47.562;18.414;2022-09-09T16:47:57;2.72;;;1.70;;
68192;SDS011;55012;47.562;18.414;2022-09-09T16:50:25;3.90;;;1.65;;
68192;SDS011;55012;47.562;18.414;2022-09-09T16:52:51;5.03;;;1.80;;
68192;SDS011;55012;47.562;18.414;2022-09-09T16:55:18;3.05;;;1.60;;
68192;SDS011;55012;47.562;18.414;2022-09-09T16:57:45;3.08;;;2.03;;
68192;SDS011;55012;47.562;18.414;2022-09-09T17:00:14;3.60;;;2.20;;
68192;SDS011;55012;47.562;18.414;2022-09-09T17:02:41;4.50;;;1.90;;
68192;SDS011;55012;47.562;18.414;2022-09-09T17:05:07;2.55;;;1.90;;
68192;SDS011;55012;47.562;18.414;2022-09-09T17:07:32;4.05;;;2.40;;
68192;SDS011;55012;47.562;18.414;2022-09-09T17:09:58;3.85;;;1.90;;
68192;SDS011;55012;47.562;18.414;2022-09-09T17:12:23;4.03;;;1.92;;
68192;SDS011;55012;47.562;18.414;2022-09-09T17:14:49;5.55;;;2.40;;
68192;SDS011;55012;47.562;18.414;2022-09-09T17:17:15;4.13;;;2.00;;
68192;SDS011;55012;47.562;18.414;2022-09-09T17:19:42;5.13;;;1.90;;
68192;SDS011;55012;47.562;18.414;2022-09-09T17:22:08;4.78;;;1.80;;
68192;SDS011;55012;47.562;18.414;2022-09-09T17:24:33;3.65;;;1.90;;
68192;SDS011;55012;47.562;18.414;2022-09-09T17:26:59;4.97;;;2.13;;
68192;SDS011;55012;47.562;18.414;2022-09-09T17:29:26;3.97;;;2.75;;
68192;SDS011;55012;47.562;18.414;2022-09-09T17:31:51;6.78;;;2.55;;
68192;SDS011;55012;47.562;18.414;2022-09-09T17:34:17;7.95;;;2.70;;
68192;SDS011;55012;47.562;18.414;2022-09-09T17:36:43;6.38;;;2.75;;
68192;SDS011;55012;47.562;18.414;2022-09-09T17:39:08;5.40;;;2.88;;
68192;SDS011;55012;47.562;18.414;2022-09-09T17:41:35;4.10;;;2.45;;
68192;SDS011;55012;47.562;18.414;2022-09-09T17:44:03;8.00;;;2.90;;
68192;SDS011;55012;47.562;18.414;2022-09-09T17:46:32;8.68;;;3.10;;
68192;SDS011;55012;47.562;18.414;2022-09-09T17:49:03;6.93;;;3.30;;
68192;SDS011;55012;47.562;18.414;2022-09-09T17:51:30;9.07;;;3.20;;
68192;SDS011;55012;47.562;18.414;2022-09-09T17:53:59;5.82;;;3.50;;
68192;SDS011;55012;47.562;18.414;2022-09-09T17:56:30;9.18;;;4.50;;
68192;SDS011;55012;47.562;18.414;2022-09-09T17:58:57;6.53;;;3.42;;
68192;SDS011;55012;47.562;18.414;2022-09-09T18:01:25;9.45;;;6.22;;
68192;SDS011;55012;47.562;18.414;2022-09-09T18:03:52;13.45;;;6.38;;
68192;SDS011;55012;47.562;18.414;2022-09-09T18:06:22;14.68;;;6.53;;
68192;SDS011;55012;47.562;18.414;2022-09-09T18:08:55;10.02;;;3.90;;
68192;SDS011;55012;47.562;18.414;2022-09-09T18:11:23;9.43;;;4.35;;
68192;SDS011;55012;47.562;18.414;2022-09-09T18:13:55;6.40;;;2.65;;
68192;SDS011;55012;47.562;18.414;2022-09-09T18:16:24;7.15;;;2.30;;
68192;SDS011;55012;47.562;18.414;2022-09-09T18:18:51;6.65;;;2.92;;
68192;SDS011;55012;47.562;18.414;2022-09-09T18:21:17;10.20;;;3.30;;
68192;SDS011;55012;47.562;18.414;2022-09-09T18:23:44;2.55;;;1.95;;
68192;SDS011;55012;47.562;18.414;2022-09-09T18:26:14;7.00;;;3.45;;
68192;SDS011;55012;47.562;18.414;2022-09-09T18:28:42;9.45;;;6.45;;
68192;SDS011;55012;47.562;18.414;2022-09-09T18:31:12;5.55;;;3.88;;
68192;SDS011;55012;47.562;18.414;2022-09-09T18:33:39;7.75;;;3.80;;
68192;SDS011;55012;47.562;18.414;2022-09-09T18:36:07;7.45;;;3.42;;
68192;SDS011;55012;47.562;18.414;2022-09-09T18:38:35;7.60;;;3.83;;
68192;SDS011;55012;47.562;18.414;2022-09-09T18:41:18;7.68;;;2.90;;
68192;SDS011;55012;47.562;18.414;2022-09-09T18:43:49;3.08;;;2.20;;
68192;SDS011;55012;47.562;18.414;2022-09-09T18:46:17;5.88;;;2.50;;
68192;SDS011;55012;47.562;18.414;2022-09-09T18:48:44;6.70;;;3.60;;
68192;SDS011;55012;47.562;18.414;2022-09-09T18:51:11;8.07;;;3.75;;
68192;SDS011;55012;47.562;18.414;2022-09-09T18:53:39;7.85;;;3.75;;
68192;SDS011;55012;47.562;18.414;2022-09-09T18:56:07;7.18;;;4.05;;
68192;SDS011;55012;47.562;18.414;2022-09-09T18:58:34;7.45;;;3.80;;
68192;SDS011;55012;47.562;18.414;2022-09-09T19:01:00;9.25;;;3.85;;
68192;SDS011;55012;47.562;18.414;2022-09-09T19:03:28;7.45;;;4.10;;
68192;SDS011;55012;47.562;18.414;2022-09-09T19:06:01;6.07;;;4.18;;
68192;SDS011;55012;47.562;18.414;2022-09-09T19:08:41;13.50;;;5.63;;
68192;SDS011;55012;47.562;18.414;2022-09-09T19:11:09;11.48;;;6.70;;
68192;SDS011;55012;47.562;18.414;2022-09-09T19:13:37;7.60;;;4.75;;
68192;SDS011;55012;47.562;18.414;2022-09-09T19:16:03;11.63;;;5.88;;
68192;SDS011;55012;47.562;18.414;2022-09-09T19:18:31;15.52;;;5.60;;
68192;SDS011;55012;47.562;18.414;2022-09-09T19:20:56;10.43;;;4.70;;
68192;SDS011;55012;47.562;18.414;2022-09-09T19:23:33;5.82;;;2.75;;
68192;SDS011;55012;47.562;18.414;2022-09-09T19:26:02;5.82;;;3.20;;
68192;SDS011;55012;47.562;18.414;2022-09-09T19:28:30;18.48;;;10.68;;
68192;SDS011;55012;47.562;18.414;2022-09-09T19:31:03;34.97;;;20.20;;
68192;SDS011;55012;47.562;18.414;2022-09-09T19:33:33;8.73;;;4.63;;
68192;SDS011;55012;47.562;18.414;2022-09-09T19:36:01;12.10;;;6.07;;
68192;SDS011;55012;47.562;18.414;2022-09-09T19:38:31;16.30;;;8.57;;
68192;SDS011;55012;47.562;18.414;2022-09-09T19:41:08;23.85;;;15.25;;
68192;SDS011;55012;47.562;18.414;2022-09-09T19:43:35;11.32;;;5.50;;
68192;SDS011;55012;47.562;18.414;2022-09-09T19:46:02;10.38;;;5.70;;
68192;SDS011;55012;47.562;18.414;2022-09-09T19:48:31;9.43;;;4.57;;
68192;SDS011;55012;47.562;18.414;2022-09-09T19:51:02;16.90;;;6.40;;
68192;SDS011;55012;47.562;18.414;2022-09-09T19:53:29;12.20;;;6.43;;
68192;SDS011;55012;47.562;18.414;2022-09-09T19:56:00;12.43;;;6.20;;
68192;SDS011;55012;47.562;18.414;2022-09-09T19:58:27;12.35;;;6.20;;
68192;SDS011;55012;47.562;18.414;2022-09-09T20:00:53;14.27;;;6.22;;
68192;SDS011;55012;47.562;18.414;2022-09-09T20:03:19;8.43;;;4.43;;
68192;SDS011;55012;47.562;18.414;2022-09-09T20:05:44;8.90;;;3.42;;
68192;SDS011;55012;47.562;18.414;2022-09-09T20:08:09;8.45;;;4.32;;
68192;SDS011;55012;47.562;18.414;2022-09-09T20:10:35;16.73;;;4.70;;
68192;SDS011;55012;47.562;18.414;2022-09-09T20:13:01;9.68;;;5.03;;
68192;SDS011;55012;47.562;18.414;2022-09-09T20:15:26;9.23;;;5.65;;
68192;SDS011;55012;47.562;18.414;2022-09-09T20:17:53;17.20;;;8.38;;
68192;SDS011;55012;47.562;18.414;2022-09-09T20:20:18;23.83;;;12.00;;
68192;SDS011;55012;47.562;18.414;2022-09-09T20:22:45;19.88;;;9.63;;
68192;SDS011;55012;47.562;18.414;2022-09-09T20:25:13;23.65;;;9.30;;
68192;SDS011;55012;47.562;18.414;2022-09-09T20:27:39;13.65;;;8.07;;
68192;SDS011;55012;47.562;18.414;2022-09-09T20:30:05;13.20;;;6.70;;
68192;SDS011;55012;47.562;18.414;2022-09-09T20:32:31;16.27;;;6.15;;
68192;SDS011;55012;47.562;18.414;2022-09-09T20:34:57;14.15;;;6.25;;
68192;SDS011;55012;47.562;18.414;2022-09-09T20:37:22;16.58;;;6.63;;
68192;SDS011;55012;47.562;18.414;2022-09-09T20:39:48;13.52;;;6.93;;
68192;SDS011;55012;47.562;18.414;2022-09-09T20:42:14;11.95;;;6.03;;
68192;SDS011;55012;47.562;18.414;2022-09-09T20:44:41;9.55;;;5.00;;
68192;SDS011;55012;47.562;18.414;2022-09-09T20:47:07;8.88;;;5.15;;
68192;SDS011;55012;47.562;18.414;2022-09-09T20:49:33;8.85;;;4.30;;
68192;SDS011;55012;47.562;18.414;2022-09-09T20:52:01;8.32;;;4.15;;
68192;SDS011;55012;47.562;18.414;2022-09-09T20:54:27;9.05;;;3.97;;
68192;SDS011;55012;47.562;18.414;2022-09-09T20:56:57;9.70;;;5.32;;
68192;SDS011;55012;47.562;18.414;2022-09-09T20:59:28;11.13;;;5.10;;
68192;SDS011;55012;47.562;18.414;2022-09-09T21:01:55;10.15;;;6.00;;
68192;SDS011;55012;47.562;18.414;2022-09-09T21:04:21;12.13;;;6.78;;
68192;SDS011;55012;47.562;18.414;2022-09-09T21:06:47;12.00;;;7.00;;
68192;SDS011;55012;47.562;18.414;2022-09-09T21:09:14;16.33;;;8.32;;
68192;SDS011;55012;47.562;18.414;2022-09-09T21:11:40;14.70;;;7.28;;
68192;SDS011;55012;47.562;18.414;2022-09-09T21:14:06;16.15;;;8.07;;
68192;SDS011;55012;47.562;18.414;2022-09-09T21:16:31;16.45;;;7.53;;
68192;SDS011;55012;47.562;18.414;2022-09-09T21:18:57;19.80;;;7.78;;
68192;SDS011;55012;47.562;18.414;2022-09-09T21:21:26;16.38;;;7.15;;
68192;SDS011;55012;47.562;18.414;2022-09-09T21:23:56;14.48;;;6.80;;
68192;SDS011;55012;47.562;18.414;2022-09-09T21:26:24;17.98;;;6.63;;
68192;SDS011;55012;47.562;18.414;2022-09-09T21:28:50;12.93;;;6.07;;
68192;SDS011;55012;47.562;18.414;2022-09-09T21:31:17;13.75;;;5.63;;
68192;SDS011;55012;47.562;18.414;2022-09-09T21:33:43;11.27;;;6.45;;
68192;SDS011;55012;47.562;18.414;2022-09-09T21:36:10;18.50;;;9.40;;
68192;SDS011;55012;47.562;18.414;2022-09-09T21:38:36;19.65;;;8.45;;
68192;SDS011;55012;47.562;18.414;2022-09-09T21:41:05;14.05;;;7.40;;
68192;SDS011;55012;47.562;18.414;2022-09-09T21:43:32;11.05;;;5.90;;
68192;SDS011;55012;47.562;18.414;2022-09-09T21:45:58;12.82;;;6.40;;
68192;SDS011;55012;47.562;18.414;2022-09-09T21:48:23;10.60;;;6.10;;
68192;SDS011;55012;47.562;18.414;2022-09-09T21:50:50;14.77;;;4.43;;
68192;SDS011;55012;47.562;18.414;2022-09-09T21:53:16;8.35;;;4.20;;
68192;SDS011;55012;47.562;18.414;2022-09-09T21:55:44;12.63;;;6.43;;
68192;SDS011;55012;47.562;18.414;2022-09-09T21:58:12;10.05;;;5.10;;
68192;SDS011;55012;47.562;18.414;2022-09-09T22:00:41;9.50;;;4.97;;
68192;SDS011;55012;47.562;18.414;2022-09-09T22:03:10;14.55;;;5.97;;
68192;SDS011;55012;47.562;18.414;2022-09-09T22:05:40;12.43;;;5.05;;
68192;SDS011;55012;47.562;18.414;2022-09-09T22:08:07;14.50;;;5.18;;
68192;SDS011;55012;47.562;18.414;2022-09-09T22:10:34;6.72;;;3.50;;
68192;SDS011;55012;47.562;18.414;2022-09-09T22:13:01;5.93;;;3.17;;
68192;SDS011;55012;47.562;18.414;2022-09-09T22:15:27;9.00;;;3.63;;
68192;SDS011;55012;47.562;18.414;2022-09-09T22:17:54;7.35;;;3.80;;
68192;SDS011;55012;47.562;18.414;2022-09-09T22:20:20;6.40;;;3.30;;
68192;SDS011;55012;47.562;18.414;2022-09-09T22:22:46;5.57;;;2.60;;
68192;SDS011;55012;47.562;18.414;2022-09-09T22:25:11;6.68;;;3.50;;
68192;SDS011;55012;47.562;18.414;2022-09-09T22:27:36;5.78;;;2.78;;
68192;SDS011;55012;47.562;18.414;2022-09-09T22:30:02;5.60;;;3.17;;
68192;SDS011;55012;47.562;18.414;2022-09-09T22:32:28;6.90;;;2.70;;
68192;SDS011;55012;47.562;18.414;2022-09-09T22:34:53;3.75;;;2.50;;
68192;SDS011;55012;47.562;18.414;2022-09-09T22:37:19;5.15;;;2.70;;
68192;SDS011;55012;47.562;18.414;2022-09-09T22:39:44;4.65;;;2.78;;
68192;SDS011;55012;47.562;18.414;2022-09-09T22:42:10;5.45;;;2.60;;
68192;SDS011;55012;47.562;18.414;2022-09-09T22:44:36;6.57;;;3.08;;
68192;SDS011;55012;47.562;18.414;2022-09-09T22:47:01;8.88;;;3.88;;
68192;SDS011;55012;47.562;18.414;2022-09-09T22:49:27;7.75;;;4.00;;
68192;SDS011;55012;47.562;18.414;2022-09-09T22:51:53;4.63;;;2.85;;
68192;SDS011;55012;47.562;18.414;2022-09-09T22:54:18;4.85;;;3.10;;
68192;SDS011;55012;47.562;18.414;2022-09-09T22:56:50;4.38;;;2.72;;
68192;SDS011;55012;47.562;18.414;2022-09-09T22:59:16;5.10;;;2.80;;
68192;SDS011;55012;47.562;18.414;2022-09-09T23:01:42;6.65;;;3.33;;
68192;SDS011;55012;47.562;18.414;2022-09-09T23:04:08;4.47;;;2.80;;
68192;SDS011;55012;47.562;18.414;2022-09-09T23:06:36;4.85;;;2.75;;
68192;SDS011;55012;47.562;18.414;2022-09-09T23:09:02;5.20;;;2.63;;
68192;SDS011;55012;47.562;18.414;2022-09-09T23:11:29;4.95;;;2.55;;
68192;SDS011;55012;47.562;18.414;2022-09-09T23:13:56;7.00;;;3.13;;
68192;SDS011;55012;47.562;18.414;2022-09-09T23:16:32;3.38;;;2.80;;
68192;SDS011;55012;47.562;18.414;2022-09-09T23:19:17;4.40;;;2.60;;
68192;SDS011;55012;47.562;18.414;2022-09-09T23:21:44;4.18;;;2.78;;
68192;SDS011;55012;47.562;18.414;2022-09-09T23:24:11;5.13;;;3.10;;
68192;SDS011;55012;47.562;18.414;2022-09-09T23:26:38;5.65;;;3.25;;
68192;SDS011;55012;47.562;18.414;2022-09-09T23:29:05;4.57;;;3.28;;
68192;SDS011;55012;47.562;18.414;2022-09-09T23:31:31;4.63;;;3.17;;
68192;SDS011;55012;47.562;18.414;2022-09-09T23:34:02;5.22;;;3.33;;
68192;SDS011;55012;47.562;18.414;2022-09-09T23:36:28;5.65;;;3.40;;
68192;SDS011;55012;47.562;18.414;2022-09-09T23:38:55;7.55;;;3.50;;
68192;SDS011;55012;47.562;18.414;2022-09-09T23:41:22;5.93;;;3.40;;
68192;SDS011;55012;47.562;18.414;2022-09-09T23:43:48;4.82;;;3.58;;
68192;SDS011;55012;47.562;18.414;2022-09-09T23:46:16;4.38;;;3.17;;
68192;SDS011;55012;47.562;18.414;2022-09-09T23:48:44;5.15;;;3.65;;
68192;SDS011;55012;47.562;18.414;2022-09-09T23:51:14;6.07;;;4.03;;
68192;SDS011;55012;47.562;18.414;2022-09-09T23:53:46;7.28;;;3.55;;
68192;SDS011;55012;47.562;18.414;2022-09-09T23:56:22;8.57;;;3.85;;
68192;SDS011;55012;47.562;18.414;2022-09-09T23:58:49;6.57;;;3.47;;
